Wind Star — C6CA9 — position and weather

sailwx.info

Track history (hours):
 
Tides and Currents Weather Stations Pressure Air Temp Water Temp Dewpoint Dewpoint Depression Visibility Wind Speed Wind Dir Waves Ship Positions

Wind Star

Operator: Holland America Line

Last reported at 2017-Dec-31 16:24 UTC. Time now 2018-Jan-18 17:50 UTC.
Position N 09°12' W 079°54'.
Warning: this ship's position is 18 days out of date.

Length 134 m; draft 4.1 m.

Type: Ship. MMSI: 309163000.

Date/timePositionNaut miles runAvg speedWind from/ knotsBaromVisibWave heightAir tempDewpointWater temp
2017-Dec-31 16:24N 09°12' W 079°54'4 8.1
2017-Dec-31 15:57N 09°15' W 079°55'1 2.5
2017-Dec-31 15:29N 09°16' W 079°55'0 0.5
2017-Dec-31 15:00N 09°16' W 079°55'0 0.7
2017-Dec-31 14:30N 09°17' W 079°55'1 1.5
2017-Dec-31 14:01N 09°17' W 079°55'1 1.5
2017-Dec-31 13:31N 09°18' W 079°55'1 2.2
2017-Dec-31 13:01N 09°19' W 079°55'3 6.5
2017-Dec-31 12:31N 09°22' W 079°56'0 1.0
2017-Dec-31 12:01N 09°22' W 079°56'0 0.0
2017-Dec-31 11:30N 09°22' W 079°56'0 0.1
2017-Dec-31 11:01N 09°22' W 079°56'0 0.0
2017-Dec-31 10:30N 09°22' W 079°56'0 0.0
2017-Dec-31 10:00N 09°22' W 079°56'0 0.1
2017-Dec-31 09:30N 09°22' W 079°56'0 0.0
2017-Dec-31 09:01N 09°22' W 079°56'0 0.0
2017-Dec-31 08:31N 09°22' W 079°56'0 0.0
2017-Dec-31 08:00N 09°22' W 079°56'0 0.0
2017-Dec-31 07:31N 09°22' W 079°56'0 0.0
2017-Dec-31 07:01N 09°22' W 079°56'0 0.0
2017-Dec-31 06:30N 09°22' W 079°56'0 0.0
2017-Dec-31 06:00N 09°22' W 079°56'0 0.0
2017-Dec-31 05:30N 09°22' W 079°56'0 0.0
2017-Dec-31 05:01N 09°22' W 079°56'0 0.0
2017-Dec-31 04:31N 09°22' W 079°56'0 0.0
2017-Dec-31 04:00N 09°22' W 079°56'0 0.0
2017-Dec-31 03:31N 09°22' W 079°56'0 0.0
2017-Dec-31 03:01N 09°22' W 079°56'0 0.0
2017-Dec-31 02:31N 09°22' W 079°56'0 0.0
2017-Dec-31 02:00N 09°22' W 079°56'0 0.0
2017-Dec-31 01:30N 09°22' W 079°56'1 2.6
2017-Dec-31 01:00N 09°23' W 079°55'4 8.9
2017-Dec-31 00:31N 09°28' W 079°54'3 6.5
2017-Dec-31 00:00N 09°30' W 079°53'3 4.9
2017-Dec-30 23:30N 09°28' W 079°53'4 9.1
2017-Dec-30 23:01N 09°23' W 079°54'2 3.3
2017-Dec-30 22:29N 09°22' W 079°54'0 0.0
2017-Dec-30 21:59N 09°22' W 079°54'0 0.0
2017-Dec-30 21:29N 09°22' W 079°54'0 0.0
2017-Dec-30 20:59N 09°22' W 079°54'0 0.0
2017-Dec-30 20:29N 09°22' W 079°54'0 0.0
2017-Dec-30 19:59N 09°22' W 079°54'0 0.0
2017-Dec-30 19:29N 09°22' W 079°54'0 0.0
2017-Dec-30 18:59N 09°22' W 079°54'0 0.0
2017-Dec-30 18:29N 09°22' W 079°54'0 0.0
2017-Dec-30 17:59N 09°22' W 079°54'0 0.0
2017-Dec-30 17:29N 09°22' W 079°54'0 0.0
2017-Dec-30 16:59N 09°22' W 079°54'0 0.0
2017-Dec-30 16:29N 09°22' W 079°54'0 0.0
2017-Dec-30 15:59N 09°22' W 079°54'0 0.0
2017-Dec-30 15:29N 09°22' W 079°54'0 0.0
2017-Dec-30 14:59N 09°22' W 079°54'0 0.0
2017-Dec-30 14:29N 09°22' W 079°54'0 0.0
2017-Dec-30 13:59N 09°22' W 079°54'0 0.0
2017-Dec-30 13:29N 09°22' W 079°54'0 0.0
2017-Dec-30 12:59N 09°22' W 079°54'0 0.0
2017-Dec-30 12:29N 09°22' W 079°54'0 0.0
2017-Dec-30 11:59N 09°22' W 079°54'0 0.0
2017-Dec-30 11:29N 09°22' W 079°54'0 0.0
2017-Dec-30 10:59N 09°22' W 079°54'0 0.6
2017-Dec-30 10:30N 09°22' W 079°53'2 4.0
2017-Dec-30 10:00N 09°24' W 079°54'1 2.4
2017-Dec-30 09:30N 09°23' W 079°55'1 2.1
2017-Dec-30 08:58N 09°22' W 079°55'0 0.0
2017-Dec-30 08:28N 09°22' W 079°55'0 0.0
2017-Dec-30 07:58N 09°22' W 079°55'0 0.0
2017-Dec-30 07:28N 09°22' W 079°55'0 0.0
2017-Dec-30 06:58N 09°22' W 079°55'0 0.0
2017-Dec-30 06:28N 09°22' W 079°55'0 0.0
2017-Dec-30 05:58N 09°22' W 079°55'0 0.0
2017-Dec-30 05:28N 09°22' W 079°55'0 0.0
2017-Dec-30 04:58N 09°22' W 079°55'0 0.0
2017-Dec-30 04:28N 09°22' W 079°55'0 0.0
2017-Dec-30 03:58N 09°22' W 079°55'0 0.0
2017-Dec-30 03:28N 09°22' W 079°55'0 0.0
2017-Dec-30 02:49N 09°22' W 079°55'0 0.1
2017-Dec-30 02:28N 09°22' W 079°55'0 0.0
2017-Dec-30 01:58N 09°22' W 079°55'0 0.0
2017-Dec-30 01:28N 09°22' W 079°55'0 0.0
2017-Dec-30 00:58N 09°22' W 079°55'0 0.0
2017-Dec-30 00:28N 09°22' W 079°55'0 0.0
2017-Dec-29 23:58N 09°22' W 079°55'0 0.0
2017-Dec-29 23:28N 09°22' W 079°55'0 0.0
2017-Dec-29 22:58N 09°22' W 079°55'0 0.0
2017-Dec-29 22:28N 09°22' W 079°55'0 0.0
2017-Dec-29 21:55N 09°22' W 079°55'0 0.0
2017-Dec-29 21:28N 09°22' W 079°55'0 0.0
2017-Dec-29 21:01N 09°22' W 079°55'0 0.0
2017-Dec-29 20:30N 09°22' W 079°55'0 0.9
2017-Dec-29 20:00N 09°22' W 079°55'4 7.2
2017-Dec-29 19:31N 09°18' W 079°55'2 3.5
2017-Dec-29 19:01N 09°17' W 079°55'0 0.7
2017-Dec-29 18:30N 09°16' W 079°55'0 0.6
2017-Dec-29 18:00N 09°16' W 079°55'1 2.1
2017-Dec-29 17:30N 09°15' W 079°55'2 4.4
2017-Dec-29 17:00N 09°13' W 079°55'4 7.3
2017-Dec-29 16:30N 09°11' W 079°52'  
Track history (hours):
 
Tides and Currents Weather Stations Pressure Air Temp Water Temp Dewpoint Dewpoint Depression Visibility Wind Speed Wind Dir Waves Ship Positions

Wind Star

Operator: Holland America Line

Last reported at 2017-Dec-31 16:24 UTC. Time now 2018-Jan-18 17:50 UTC.
Position N 09°12' W 079°54'.
Warning: this ship's position is 18 days out of date.

Length 134 m; draft 4.1 m.

Type: Ship. MMSI: 309163000.

Date/timePositionNaut miles runAvg speedWind from/ knotsBaromVisibWave heightAir tempDewpointWater temp
2017-Dec-31 16:24N 09°12' W 079°54'4 8.1
2017-Dec-31 15:57N 09°15' W 079°55'1 2.5
2017-Dec-31 15:29N 09°16' W 079°55'0 0.5
2017-Dec-31 15:00N 09°16' W 079°55'0 0.7
2017-Dec-31 14:30N 09°17' W 079°55'1 1.5
2017-Dec-31 14:01N 09°17' W 079°55'1 1.5
2017-Dec-31 13:31N 09°18' W 079°55'1 2.2
2017-Dec-31 13:01N 09°19' W 079°55'3 6.5
2017-Dec-31 12:31N 09°22' W 079°56'0 1.0
2017-Dec-31 12:01N 09°22' W 079°56'0 0.0
2017-Dec-31 11:30N 09°22' W 079°56'0 0.1
2017-Dec-31 11:01N 09°22' W 079°56'0 0.0
2017-Dec-31 10:30N 09°22' W 079°56'0 0.0
2017-Dec-31 10:00N 09°22' W 079°56'0 0.1
2017-Dec-31 09:30N 09°22' W 079°56'0 0.0
2017-Dec-31 09:01N 09°22' W 079°56'0 0.0
2017-Dec-31 08:31N 09°22' W 079°56'0 0.0
2017-Dec-31 08:00N 09°22' W 079°56'0 0.0
2017-Dec-31 07:31N 09°22' W 079°56'0 0.0
2017-Dec-31 07:01N 09°22' W 079°56'0 0.0
2017-Dec-31 06:30N 09°22' W 079°56'0 0.0
2017-Dec-31 06:00N 09°22' W 079°56'0 0.0
2017-Dec-31 05:30N 09°22' W 079°56'0 0.0
2017-Dec-31 05:01N 09°22' W 079°56'0 0.0
2017-Dec-31 04:31N 09°22' W 079°56'0 0.0
2017-Dec-31 04:00N 09°22' W 079°56'0 0.0
2017-Dec-31 03:31N 09°22' W 079°56'0 0.0
2017-Dec-31 03:01N 09°22' W 079°56'0 0.0
2017-Dec-31 02:31N 09°22' W 079°56'0 0.0
2017-Dec-31 02:00N 09°22' W 079°56'0 0.0
2017-Dec-31 01:30N 09°22' W 079°56'1 2.6
2017-Dec-31 01:00N 09°23' W 079°55'4 8.9
2017-Dec-31 00:31N 09°28' W 079°54'3 6.5
2017-Dec-31 00:00N 09°30' W 079°53'3 4.9
2017-Dec-30 23:30N 09°28' W 079°53'4 9.1
2017-Dec-30 23:01N 09°23' W 079°54'2 3.3
2017-Dec-30 22:29N 09°22' W 079°54'0 0.0
2017-Dec-30 21:59N 09°22' W 079°54'0 0.0
2017-Dec-30 21:29N 09°22' W 079°54'0 0.0
2017-Dec-30 20:59N 09°22' W 079°54'0 0.0
2017-Dec-30 20:29N 09°22' W 079°54'0 0.0
2017-Dec-30 19:59N 09°22' W 079°54'0 0.0
2017-Dec-30 19:29N 09°22' W 079°54'0 0.0
2017-Dec-30 18:59N 09°22' W 079°54'0 0.0
2017-Dec-30 18:29N 09°22' W 079°54'0 0.0
2017-Dec-30 17:59N 09°22' W 079°54'0 0.0
2017-Dec-30 17:29N 09°22' W 079°54'0 0.0
2017-Dec-30 16:59N 09°22' W 079°54'0 0.0
2017-Dec-30 16:29N 09°22' W 079°54'0 0.0
2017-Dec-30 15:59N 09°22' W 079°54'0 0.0
2017-Dec-30 15:29N 09°22' W 079°54'0 0.0
2017-Dec-30 14:59N 09°22' W 079°54'0 0.0
2017-Dec-30 14:29N 09°22' W 079°54'0 0.0
2017-Dec-30 13:59N 09°22' W 079°54'0 0.0
2017-Dec-30 13:29N 09°22' W 079°54'0 0.0
2017-Dec-30 12:59N 09°22' W 079°54'0 0.0
2017-Dec-30 12:29N 09°22' W 079°54'0 0.0
2017-Dec-30 11:59N 09°22' W 079°54'0 0.0
2017-Dec-30 11:29N 09°22' W 079°54'0 0.0
2017-Dec-30 10:59N 09°22' W 079°54'0 0.6
2017-Dec-30 10:30N 09°22' W 079°53'2 4.0
2017-Dec-30 10:00N 09°24' W 079°54'1 2.4
2017-Dec-30 09:30N 09°23' W 079°55'1 2.1
2017-Dec-30 08:58N 09°22' W 079°55'0 0.0
2017-Dec-30 08:28N 09°22' W 079°55'0 0.0
2017-Dec-30 07:58N 09°22' W 079°55'0 0.0
2017-Dec-30 07:28N 09°22' W 079°55'0 0.0
2017-Dec-30 06:58N 09°22' W 079°55'0 0.0
2017-Dec-30 06:28N 09°22' W 079°55'0 0.0
2017-Dec-30 05:58N 09°22' W 079°55'0 0.0
2017-Dec-30 05:28N 09°22' W 079°55'0 0.0
2017-Dec-30 04:58N 09°22' W 079°55'0 0.0
2017-Dec-30 04:28N 09°22' W 079°55'0 0.0
2017-Dec-30 03:58N 09°22' W 079°55'0 0.0
2017-Dec-30 03:28N 09°22' W 079°55'0 0.0
2017-Dec-30 02:49N 09°22' W 079°55'0 0.1
2017-Dec-30 02:28N 09°22' W 079°55'0 0.0
2017-Dec-30 01:58N 09°22' W 079°55'0 0.0
2017-Dec-30 01:28N 09°22' W 079°55'0 0.0
2017-Dec-30 00:58N 09°22' W 079°55'0 0.0
2017-Dec-30 00:28N 09°22' W 079°55'0 0.0
2017-Dec-29 23:58N 09°22' W 079°55'0 0.0
2017-Dec-29 23:28N 09°22' W 079°55'0 0.0
2017-Dec-29 22:58N 09°22' W 079°55'0 0.0
2017-Dec-29 22:28N 09°22' W 079°55'0 0.0
2017-Dec-29 21:55N 09°22' W 079°55'0 0.0
2017-Dec-29 21:28N 09°22' W 079°55'0 0.0
2017-Dec-29 21:01N 09°22' W 079°55'0 0.0
2017-Dec-29 20:30N 09°22' W 079°55'0 0.9
2017-Dec-29 20:00N 09°22' W 079°55'4 7.2
2017-Dec-29 19:31N 09°18' W 079°55'2 3.5
2017-Dec-29 19:01N 09°17' W 079°55'0 0.7
2017-Dec-29 18:30N 09°16' W 079°55'0 0.6
2017-Dec-29 18:00N 09°16' W 079°55'1 2.1
2017-Dec-29 17:30N 09°15' W 079°55'2 4.4
2017-Dec-29 17:00N 09°13' W 079°55'4 7.3
2017-Dec-29 16:30N 09°11' W 079°52'  

Dump ship's entire track history